Time;durP1;ratioP1;P1;durP2;ratioP2;P2;SDS_P1;SDS_P2;PMS_P1;PMS_P2;Temp;Humidity;BMP_temperature;BMP_pressure;BME280_temperature;BME280_humidity;BME280_pressure;Samples;Min_cycle;Max_cycle;Signal;HPM_P1;HPM_P2
2024/02/08 00:00:43;;;;;;;7.93;2.60;;;3.20;99.90;;;;;;4961762;28;20238;-74
2024/02/08 00:03:13;;;;;;;4.10;2.10;;;3.20;99.90;;;;;;4961607;28;20266;-74
2024/02/08 00:05:41;;;;;;;4.37;2.20;;;3.20;99.90;;;;;;4963234;28;20207;-74
2024/02/08 00:08:11;;;;;;;8.43;3.07;;;3.20;99.90;;;;;;4959131;28;20319;-74
2024/02/08 00:10:39;;;;;;;8.93;2.90;;;3.20;99.90;;;;;;4963255;28;20234;-74
2024/02/08 00:13:06;;;;;;;4.07;2.80;;;3.10;99.90;;;;;;4962067;28;20261;-74
2024/02/08 00:15:34;;;;;;;7.67;2.57;;;3.10;99.90;;;;;;4970227;28;21101;-73
2024/02/08 00:18:01;;;;;;;7.70;2.90;;;3.00;99.90;;;;;;4970039;28;20763;-73
2024/02/08 00:20:28;;;;;;;7.10;2.37;;;3.00;99.90;;;;;;4970024;28;20306;-74
2024/02/08 00:22:55;;;;;;;7.10;2.87;;;3.00;99.90;;;;;;4954161;28;20278;-73
2024/02/08 00:25:24;;;;;;;6.90;2.53;;;3.10;99.90;;;;;;4970075;28;20644;-74
2024/02/08 00:27:53;;;;;;;7.13;2.97;;;3.10;99.90;;;;;;4969670;28;20230;-73
2024/02/08 00:30:20;;;;;;;5.53;2.60;;;3.10;99.90;;;;;;4965102;28;20207;-73
2024/02/08 00:32:48;;;;;;;6.60;2.57;;;3.20;99.90;;;;;;4961288;28;20296;-73
2024/02/08 00:35:17;;;;;;;4.07;2.60;;;3.20;99.90;;;;;;4969405;28;20721;-74
2024/02/08 00:37:46;;;;;;;5.83;2.63;;;3.10;99.90;;;;;;4969736;28;20760;-74
2024/02/08 00:40:14;;;;;;;3.70;2.20;;;3.10;99.90;;;;;;4969809;28;20211;-74
2024/02/08 00:42:41;;;;;;;4.20;2.10;;;3.10;99.90;;;;;;4960554;28;20291;-74
2024/02/08 00:45:10;;;;;;;6.00;2.70;;;3.00;99.90;;;;;;4950645;28;20294;-75
2024/02/08 00:47:37;;;;;;;5.23;2.50;;;3.00;99.90;;;;;;4950528;28;20709;-74
2024/02/08 00:50:05;;;;;;;5.37;2.83;;;3.00;99.90;;;;;;4950293;28;20346;-75
2024/02/08 00:52:33;;;;;;;4.17;2.20;;;3.00;99.90;;;;;;4950343;28;20227;-75
2024/02/08 00:55:00;;;;;;;10.60;3.33;;;3.00;99.90;;;;;;4968389;28;20297;-74
2024/02/08 00:57:28;;;;;;;6.10;3.00;;;2.90;99.90;;;;;;4969144;28;20608;-75
2024/02/08 00:59:56;;;;;;;6.53;2.67;;;2.90;99.90;;;;;;4969579;28;20211;-74
2024/02/08 01:02:26;;;;;;;8.43;2.63;;;2.90;99.90;;;;;;4969908;28;20249;-76
2024/02/08 01:04:53;;;;;;;6.30;2.13;;;2.80;99.90;;;;;;4969373;28;20218;-76
2024/02/08 01:07:20;;;;;;;5.90;2.33;;;2.80;99.90;;;;;;4955841;28;20668;-76
2024/02/08 01:09:47;;;;;;;8.30;3.23;;;2.70;99.90;;;;;;4954142;28;20318;-76
2024/02/08 01:12:14;;;;;;;8.47;4.60;;;2.70;99.90;;;;;;4969198;28;20215;-76
2024/02/08 01:14:42;;;;;;;10.87;5.40;;;2.70;99.90;;;;;;4969087;28;20273;-75
2024/02/08 01:17:09;;;;;;;6.10;3.97;;;2.70;99.90;;;;;;4969069;28;20231;-76
2024/02/08 01:19:37;;;;;;;6.63;3.40;;;2.60;99.90;;;;;;4954876;28;20378;-76
2024/02/08 01:22:04;;;;;;;5.23;2.93;;;2.60;99.90;;;;;;4949814;28;20244;-75
2024/02/08 01:24:31;;;;;;;6.17;2.80;;;2.60;99.90;;;;;;4965264;28;20209;-76
2024/02/08 01:26:58;;;;;;;6.37;2.43;;;2.60;99.90;;;;;;4968947;28;20310;-75
2024/02/08 01:29:26;;;;;;;6.93;2.63;;;2.60;99.90;;;;;;4969096;28;20310;-75
2024/02/08 01:31:53;;;;;;;6.00;2.70;;;2.70;99.90;;;;;;4968977;28;20743;-73
2024/02/08 01:34:23;;;;;;;3.90;2.40;;;2.60;99.90;;;;;;4969200;28;20648;-74
2024/02/08 01:36:53;;;;;;;6.40;2.90;;;2.60;99.90;;;;;;4968890;28;20226;-73
2024/02/08 01:39:23;;;;;;;7.73;2.53;;;2.60;99.90;;;;;;4969070;28;20305;-73
2024/02/08 01:41:50;;;;;;;6.50;2.77;;;2.60;99.90;;;;;;4968320;28;20205;-74
2024/02/08 01:44:17;;;;;;;5.43;2.70;;;2.60;99.90;;;;;;4951062;28;20270;-74
2024/02/08 01:46:48;;;;;;;7.30;2.60;;;2.60;99.90;;;;;;4949237;28;20211;-74
2024/02/08 01:49:20;;;;;;;6.63;2.70;;;2.60;99.90;;;;;;4949795;28;20258;-74
2024/02/08 01:51:49;;;;;;;5.87;2.60;;;2.70;99.90;;;;;;4949348;28;20295;-74
2024/02/08 01:54:19;;;;;;;7.00;2.80;;;2.70;99.90;;;;;;4954646;28;20231;-74
2024/02/08 01:56:47;;;;;;;8.10;3.17;;;2.70;99.90;;;;;;4949219;28;20766;-73
2024/02/08 01:59:19;;;;;;;6.20;2.77;;;2.70;99.90;;;;;;4949190;28;20218;-73
2024/02/08 02:01:51;;;;;;;5.17;2.80;;;2.80;99.90;;;;;;4949131;28;20256;-73
2024/02/08 02:04:18;;;;;;;10.30;3.07;;;2.80;99.90;;;;;;4949211;28;20250;-73
2024/02/08 02:06:45;;;;;;;7.13;3.07;;;2.70;99.90;;;;;;4957991;28;20209;-73
2024/02/08 02:09:23;;;;;;;6.63;2.40;;;2.70;99.90;;;;;;4968437;28;20826;-73
2024/02/08 02:11:56;;;;;;;7.03;2.90;;;2.70;99.90;;;;;;4964749;28;20634;-73
2024/02/08 02:14:29;;;;;;;4.90;2.50;;;2.70;99.90;;;;;;4949133;28;20659;-73
2024/02/08 02:17:03;;;;;;;4.07;2.30;;;2.70;99.90;;;;;;4949018;28;20227;-73
2024/02/08 02:19:31;;;;;;;3.37;2.57;;;2.70;99.90;;;;;;4949120;28;20195;-73
2024/02/08 02:21:59;;;;;;;5.30;2.60;;;2.70;99.90;;;;;;4955824;28;20302;-74
2024/02/08 02:24:26;;;;;;;3.23;2.67;;;2.70;99.90;;;;;;4968025;28;20254;-73
2024/02/08 02:26:57;;;;;;;5.83;2.53;;;2.70;99.90;;;;;;4968281;28;20292;-73
2024/02/08 02:29:25;;;;;;;5.67;2.43;;;2.80;99.90;;;;;;4968078;28;20231;-73
2024/02/08 02:31:52;;;;;;;4.80;2.90;;;2.60;99.90;;;;;;4967649;28;20207;-73
2024/02/08 02:34:25;;;;;;;6.23;2.30;;;2.60;99.90;;;;;;4968423;28;20211;-75
2024/02/08 02:36:53;;;;;;;5.33;2.33;;;2.60;99.90;;;;;;4967910;28;20226;-74
2024/02/08 02:39:25;;;;;;;2.23;2.03;;;2.60;99.90;;;;;;4968093;28;20207;-74
2024/02/08 02:41:53;;;;;;;4.60;2.57;;;2.60;99.90;;;;;;4968223;28;20203;-73
2024/02/08 02:44:19;;;;;;;5.37;2.50;;;2.60;99.90;;;;;;4967270;28;20278;-73
2024/02/08 02:46:46;;;;;;;4.33;2.43;;;2.60;99.90;;;;;;4968096;28;20246;-74
2024/02/08 02:49:13;;;;;;;5.03;2.27;;;2.60;99.90;;;;;;4968158;28;20827;-73
2024/02/08 02:51:40;;;;;;;7.57;2.70;;;2.60;99.90;;;;;;4967772;28;20277;-73
2024/02/08 02:54:07;;;;;;;5.33;2.03;;;2.60;99.90;;;;;;4967556;28;20321;-73
2024/02/08 02:56:36;;;;;;;3.13;2.20;;;2.60;99.90;;;;;;4967752;28;20317;-73
2024/02/08 02:59:03;;;;;;;5.70;2.67;;;2.60;99.90;;;;;;4967584;28;20246;-73
2024/02/08 03:01:33;;;;;;;3.37;2.43;;;2.60;99.90;;;;;;4967844;28;20206;-74
2024/02/08 03:04:00;;;;;;;5.93;2.37;;;2.60;99.90;;;;;;4967481;28;21016;-74
2024/02/08 03:06:27;;;;;;;6.00;2.53;;;2.60;99.90;;;;;;4967133;28;20820;-73
2024/02/08 03:08:56;;;;;;;5.50;2.40;;;2.60;99.90;;;;;;4967104;28;20309;-74
2024/02/08 03:11:23;;;;;;;5.97;2.67;;;2.60;99.90;;;;;;4968048;28;20231;-74
2024/02/08 03:13:51;;;;;;;6.37;2.47;;;2.60;99.90;;;;;;4967857;28;20297;-74
2024/02/08 03:16:26;;;;;;;5.43;2.73;;;2.60;99.90;;;;;;4967380;28;20337;-73
2024/02/08 03:18:53;;;;;;;3.53;2.37;;;2.60;99.90;;;;;;4967085;28;20207;-74
2024/02/08 03:21:21;;;;;;;5.83;1.90;;;2.70;99.90;;;;;;4965443;28;20218;-74
2024/02/08 03:23:49;;;;;;;2.70;2.37;;;2.60;99.90;;;;;;4969362;28;20250;-73
2024/02/08 03:26:17;;;;;;;4.67;2.27;;;2.60;99.90;;;;;;4970762;28;20711;-72
2024/02/08 03:28:44;;;;;;;7.07;2.80;;;2.60;99.90;;;;;;4969289;28;20207;-73
2024/02/08 03:31:14;;;;;;;7.40;1.93;;;2.60;99.90;;;;;;4968733;28;20772;-73
2024/02/08 03:33:43;;;;;;;3.73;2.47;;;2.60;99.90;;;;;;4969139;28;20215;-73
2024/02/08 03:36:10;;;;;;;8.20;2.63;;;2.60;99.90;;;;;;4968735;28;20266;-72
2024/02/08 03:38:39;;;;;;;3.33;2.13;;;2.60;99.90;;;;;;4968623;28;20306;-72
2024/02/08 03:41:06;;;;;;;3.53;2.10;;;2.60;99.90;;;;;;4967237;28;20207;-73
2024/02/08 03:43:33;;;;;;;4.67;2.97;;;2.60;99.90;;;;;;4967683;28;20213;-72
2024/02/08 03:46:01;;;;;;;3.97;2.30;;;2.60;99.90;;;;;;4963253;28;20303;-72
2024/02/08 03:48:32;;;;;;;4.53;2.60;;;2.60;99.90;;;;;;4951910;29;20211;-75
2024/02/08 03:51:00;;;;;;;4.03;2.47;;;2.60;99.90;;;;;;4965467;28;20199;-74
2024/02/08 03:53:27;;;;;;;3.67;2.50;;;2.60;99.90;;;;;;4969388;28;20211;-75
2024/02/08 03:55:55;;;;;;;9.37;2.43;;;2.60;99.90;;;;;;4969679;28;20293;-74
2024/02/08 03:58:23;;;;;;;6.13;2.20;;;2.60;99.90;;;;;;4970356;28;20581;-73
2024/02/08 04:00:53;;;;;;;6.27;2.60;;;2.60;99.90;;;;;;4970463;28;20686;-73
2024/02/08 04:03:43;;;;;;;3.93;2.40;;;2.60;99.90;;;;;;4971422;28;20309;-73
2024/02/08 04:06:26;;;;;;;5.73;2.03;;;2.60;99.90;;;;;;4970505;28;20217;-72
2024/02/08 04:09:06;;;;;;;6.40;2.83;;;2.60;99.90;;;;;;4970125;28;20241;-72
2024/02/08 04:55:46;;;;;;;2.73;2.00;;;2.60;99.90;;;;;;4969246;28;20285;-73
2024/02/08 04:58:13;;;;;;;4.33;1.97;;;2.60;99.90;;;;;;4969380;28;20214;-73
2024/02/08 05:00:45;;;;;;;5.13;2.07;;;2.60;99.90;;;;;;4969397;28;20302;-73
2024/02/08 05:03:17;;;;;;;5.43;3.47;;;2.60;99.90;;;;;;4969831;28;20203;-73
2024/02/08 05:05:44;;;;;;;8.67;2.40;;;2.60;99.90;;;;;;4969128;28;20623;-73
2024/02/08 05:08:13;;;;;;;5.20;2.00;;;2.60;99.90;;;;;;4968979;28;20292;-73
2024/02/08 05:10:40;;;;;;;4.77;2.33;;;2.60;99.90;;;;;;4969207;28;20306;-73
2024/02/08 05:13:08;;;;;;;4.00;2.00;;;2.60;99.90;;;;;;4969053;28;20210;-73
2024/02/08 05:15:35;;;;;;;5.30;2.53;;;2.60;99.90;;;;;;4969295;28;20298;-73
2024/02/08 05:18:01;;;;;;;4.03;2.53;;;2.50;99.90;;;;;;4968736;28;20325;-72
2024/02/08 05:20:29;;;;;;;4.27;2.27;;;2.50;99.90;;;;;;4969106;28;20297;-73
2024/02/08 05:22:57;;;;;;;6.33;2.37;;;2.50;99.90;;;;;;4968569;28;20256;-73
2024/02/08 05:25:27;;;;;;;2.97;2.10;;;2.50;99.90;;;;;;4969111;28;20257;-73
2024/02/08 05:27:54;;;;;;;3.03;2.00;;;2.50;99.90;;;;;;4968907;28;20608;-73
2024/02/08 05:30:22;;;;;;;5.30;2.30;;;2.50;99.90;;;;;;4968633;28;20257;-72
2024/02/08 05:32:51;;;;;;;7.10;2.50;;;2.50;99.90;;;;;;4968779;28;20402;-73
2024/02/08 05:35:19;;;;;;;4.40;2.50;;;2.40;99.90;;;;;;4969041;28;20210;-73
2024/02/08 05:37:46;;;;;;;8.23;2.23;;;2.50;99.90;;;;;;4968480;28;20226;-72
2024/02/08 05:40:14;;;;;;;8.77;2.33;;;2.50;99.90;;;;;;4968629;28;20297;-72
2024/02/08 05:42:43;;;;;;;5.13;2.30;;;2.50;99.90;;;;;;4968733;28;20221;-73
2024/02/08 05:45:19;;;;;;;4.47;2.27;;;2.50;99.90;;;;;;4966694;28;20744;-73
2024/02/08 05:47:49;;;;;;;6.20;2.03;;;2.50;99.90;;;;;;4948717;28;20195;-73
2024/02/08 05:50:21;;;;;;;3.37;1.83;;;2.50;99.90;;;;;;4949324;28;20211;-73
2024/02/08 05:52:51;;;;;;;7.87;2.40;;;2.50;99.90;;;;;;4950297;28;20238;-72
2024/02/08 05:55:20;;;;;;;5.43;2.20;;;2.50;99.90;;;;;;4968703;28;20684;-72
2024/02/08 05:57:47;;;;;;;3.97;2.00;;;2.50;99.90;;;;;;4968154;28;20238;-73
2024/02/08 06:00:15;;;;;;;4.67;2.30;;;2.50;99.90;;;;;;4968444;28;20234;-72
2024/02/08 06:02:46;;;;;;;5.77;2.10;;;2.60;99.90;;;;;;4968426;28;20307;-72
2024/02/08 06:05:17;;;;;;;4.30;2.20;;;2.60;99.90;;;;;;4968587;28;20605;-73
2024/02/08 06:07:50;;;;;;;4.00;1.97;;;2.60;99.90;;;;;;4968086;28;20231;-72
2024/02/08 06:10:22;;;;;;;3.63;2.10;;;2.60;99.90;;;;;;4968417;28;20217;-72
2024/02/08 06:12:59;;;;;;;6.73;2.70;;;2.60;99.90;;;;;;4967757;28;20203;-72
2024/02/08 06:15:32;;;;;;;9.33;1.97;;;2.60;99.90;;;;;;4968586;28;20567;-72
2024/02/08 06:18:04;;;;;;;4.47;2.70;;;2.60;99.90;;;;;;4968225;28;20242;-72
2024/02/08 06:20:40;;;;;;;3.63;2.20;;;2.50;99.90;;;;;;4968609;28;20199;-72
2024/02/08 06:23:23;;;;;;;6.80;2.60;;;2.50;99.90;;;;;;4967593;28;20238;-72
2024/02/08 06:26:27;;;;;;;4.30;2.70;;;2.50;99.90;;;;;;4967950;28;21029;-72
2024/02/08 06:28:53;;;;;;;8.43;3.00;;;2.50;99.90;;;;;;4968047;28;20214;-72
2024/02/08 06:31:29;;;;;;;8.40;2.83;;;2.50;99.90;;;;;;4968124;28;20218;-73
2024/02/08 06:34:10;;;;;;;7.10;2.57;;;2.50;99.90;;;;;;4968242;28;20198;-72
2024/02/08 06:36:42;;;;;;;8.23;2.70;;;2.50;99.90;;;;;;4968254;28;20381;-72
2024/02/08 06:39:21;;;;;;;6.83;2.67;;;2.40;99.90;;;;;;4968113;28;20199;-72
2024/02/08 06:41:52;;;;;;;3.87;2.60;;;2.50;99.90;;;;;;4967812;28;20282;-73
2024/02/08 07:39:34;;;;;;;5.17;3.50;;;2.30;99.90;;;;;;4971028;28;20198;-72
2024/02/08 07:42:12;;;;;;;4.33;3.57;;;2.30;99.90;;;;;;4970294;28;20206;-73
2024/02/08 07:44:45;;;;;;;3.73;3.40;;;2.30;99.90;;;;;;4970688;28;20928;-73
2024/02/08 07:47:13;;;;;;;5.87;3.57;;;2.40;99.90;;;;;;4970948;28;20199;-73
2024/02/08 07:49:43;;;;;;;4.00;3.60;;;2.30;99.90;;;;;;4970878;28;20301;-73
2024/02/08 07:52:19;;;;;;;6.00;4.00;;;2.30;99.90;;;;;;4970612;28;20210;-73
2024/02/08 07:54:47;;;;;;;6.37;4.00;;;2.40;99.90;;;;;;4953230;28;20211;-73
2024/02/08 07:57:24;;;;;;;4.40;3.67;;;2.30;99.90;;;;;;4951191;29;20245;-73
2024/02/08 07:59:52;;;;;;;5.03;4.23;;;2.40;99.90;;;;;;4951248;28;20295;-73
2024/02/08 08:02:23;;;;;;;4.67;3.63;;;2.40;99.90;;;;;;4952196;28;20702;-73
2024/02/08 08:04:53;;;;;;;4.47;3.90;;;2.30;99.90;;;;;;4968833;28;20207;-73
2024/02/08 08:07:23;;;;;;;3.93;3.63;;;2.30;99.90;;;;;;4969812;28;20772;-73
2024/02/08 08:09:59;;;;;;;8.53;4.30;;;2.40;99.90;;;;;;4969678;28;20207;-73
2024/02/08 08:12:31;;;;;;;5.73;4.30;;;2.40;99.90;;;;;;4970133;28;20202;-73
2024/02/08 08:15:16;;;;;;;4.47;3.80;;;2.40;99.90;;;;;;4970329;28;20566;-73
2024/02/08 08:17:44;;;;;;;4.27;3.90;;;2.40;99.90;;;;;;4970257;28;21053;-73
2024/02/08 08:20:50;;;;;;;4.50;3.73;;;2.40;99.90;;;;;;4970313;28;20217;-73
2024/02/08 08:23:07;;;;;;;4.33;3.80;;;2.40;99.90;;;;;;4966047;28;20466;-73
2024/02/08 08:28:39;;;;;;;5.80;5.20;;;2.50;99.90;;;;;;4963916;28;20281;-73
2024/02/08 08:31:34;;;;;;;4.07;3.77;;;2.50;99.90;;;;;;4969670;28;20657;-73
2024/02/08 08:34:04;;;;;;;5.87;4.63;;;2.50;99.90;;;;;;4969709;28;20211;-73
2024/02/08 08:36:29;;;;;;;6.73;4.93;;;2.60;99.90;;;;;;4969338;28;20199;-73
2024/02/08 08:39:41;;;;;;;8.23;4.77;;;2.60;99.90;;;;;;4969854;28;20878;-73
2024/02/08 08:41:46;;;;;;;6.07;5.10;;;2.60;99.90;;;;;;4969015;28;20211;-73
2024/02/08 08:44:18;;;;;;;4.70;4.20;;;2.60;99.90;;;;;;4969512;28;20203;-73
2024/02/08 08:46:45;;;;;;;5.17;4.67;;;2.70;99.90;;;;;;4969421;28;20261;-73
2024/02/08 08:49:14;;;;;;;5.70;4.73;;;2.70;99.90;;;;;;4969645;28;20748;-73
2024/02/08 08:51:43;;;;;;;5.77;5.23;;;2.70;99.90;;;;;;4969288;28;20215;-73
2024/02/08 08:54:25;;;;;;;5.37;4.87;;;2.80;99.90;;;;;;4957112;28;20765;-73
2024/02/08 08:56:56;;;;;;;5.80;5.30;;;2.80;99.90;;;;;;4950166;29;20203;-73
2024/02/08 08:59:26;;;;;;;8.03;5.63;;;2.80;99.90;;;;;;4958480;28;20302;-73
2024/02/08 09:01:53;;;;;;;6.97;5.70;;;2.70;99.90;;;;;;4969057;28;20221;-73
2024/02/08 09:04:32;;;;;;;6.83;6.17;;;2.50;99.90;;;;;;4969428;28;20302;-73
2024/02/08 09:07:08;;;;;;;7.27;6.03;;;2.50;99.90;;;;;;4968903;28;20241;-73
2024/02/08 09:09:54;;;;;;;6.97;6.20;;;2.60;99.90;;;;;;4969650;28;20292;-73
2024/02/08 09:12:28;;;;;;;6.90;6.20;;;2.60;99.90;;;;;;4969372;28;20199;-73
2024/02/08 09:14:59;;;;;;;7.73;6.40;;;2.70;99.90;;;;;;4969393;28;20199;-74
2024/02/08 09:17:43;;;;;;;8.83;7.03;;;2.80;99.90;;;;;;4969103;28;20270;-73
2024/02/08 09:20:19;;;;;;;7.30;6.60;;;2.80;99.90;;;;;;4968608;28;20638;-73
2024/02/08 09:22:49;;;;;;;10.60;6.83;;;2.70;99.90;;;;;;4968445;28;20780;-74
2024/02/08 09:25:17;;;;;;;7.97;7.17;;;2.60;99.90;;;;;;4968957;28;20439;-73
2024/02/08 09:27:47;;;;;;;8.70;7.03;;;2.70;99.90;;;;;;4968944;28;20219;-73
2024/02/08 09:30:30;;;;;;;10.50;7.43;;;2.80;99.90;;;;;;4968530;28;20235;-73
2024/02/08 09:33:03;;;;;;;9.57;7.23;;;2.90;99.90;;;;;;4968956;28;20207;-73
2024/02/08 09:35:30;;;;;;;10.60;8.03;;;3.00;99.90;;;;;;4968781;28;20206;-73
2024/02/08 09:38:02;;;;;;;8.73;7.77;;;3.00;99.90;;;;;;4968534;28;20296;-73
2024/02/08 09:40:42;;;;;;;9.63;7.77;;;3.10;99.90;;;;;;4968378;28;20616;-74
2024/02/08 09:46:05;;;;;;;9.47;7.80;;;3.10;99.90;;;;;;4968335;28;20284;-73
2024/02/08 09:48:43;;;;;;;9.30;8.20;;;3.20;99.90;;;;;;4968696;28;20207;-73
2024/02/08 09:51:23;;;;;;;11.30;7.73;;;3.20;99.90;;;;;;4968370;28;20673;-73
2024/02/08 09:53:52;;;;;;;10.60;8.83;;;3.20;99.90;;;;;;4959135;28;20238;-73
2024/02/08 09:56:28;;;;;;;11.37;8.20;;;3.30;99.90;;;;;;4962864;28;20302;-73
2024/02/08 09:59:02;;;;;;;11.27;7.93;;;3.30;99.90;;;;;;4968359;28;20226;-73
2024/02/08 10:01:35;;;;;;;11.03;8.40;;;3.30;99.90;;;;;;4968566;28;20561;-73
2024/02/08 10:04:07;;;;;;;10.93;8.73;;;3.30;99.90;;;;;;4968256;28;20214;-74
2024/02/08 10:06:39;;;;;;;9.87;8.10;;;3.40;99.90;;;;;;4968100;28;20230;-73
2024/02/08 10:09:34;;;;;;;10.00;8.57;;;3.40;99.90;;;;;;4968210;28;20741;-73
2024/02/08 10:11:58;;;;;;;9.00;8.00;;;3.30;99.90;;;;;;4967988;28;20214;-73
2024/02/08 10:14:25;;;;;;;10.00;7.70;;;3.30;99.90;;;;;;4968125;28;20278;-73
2024/02/08 10:16:58;;;;;;;11.57;7.87;;;3.30;99.90;;;;;;4967859;28;20303;-73
2024/02/08 10:19:35;;;;;;;9.70;7.83;;;3.30;99.90;;;;;;4968045;28;20230;-73
2024/02/08 10:22:17;;;;;;;9.77;8.20;;;3.40;99.90;;;;;;4967543;28;20235;-73
2024/02/08 10:26:19;;;;;;;10.10;8.23;;;3.40;99.90;;;;;;4967848;28;20221;-73
2024/02/08 10:27:35;;;;;;;10.40;7.77;;;3.50;99.90;;;;;;4967786;28;20209;-73
2024/02/08 10:30:06;;;;;;;9.63;8.13;;;3.60;99.90;;;;;;4968024;28;20634;-74
2024/02/08 10:32:36;;;;;;;10.37;8.80;;;3.60;99.90;;;;;;4967698;28;20213;-73
2024/02/08 10:35:13;;;;;;;10.33;8.10;;;3.80;99.90;;;;;;4967718;28;20211;-73
2024/02/08 10:37:49;;;;;;;11.77;8.43;;;3.80;99.90;;;;;;4967703;28;20768;-74
2024/02/08 10:40:29;;;;;;;10.37;7.83;;;3.90;99.90;;;;;;4968025;28;20257;-74
2024/02/08 10:42:59;;;;;;;9.90;8.57;;;3.90;99.90;;;;;;4967554;28;20798;-73
2024/02/08 10:45:32;;;;;;;11.57;7.80;;;3.90;99.90;;;;;;4968039;28;20289;-73
2024/02/08 10:48:01;;;;;;;11.20;8.67;;;4.00;99.90;;;;;;4967984;28;20211;-73
2024/02/08 10:50:29;;;;;;;9.97;8.47;;;4.00;99.90;;;;;;4967843;28;20302;-73
2024/02/08 10:53:00;;;;;;;9.30;8.30;;;4.10;99.90;;;;;;4966859;28;20298;-74
2024/02/08 10:55:36;;;;;;;10.93;8.67;;;4.10;99.90;;;;;;4967619;28;20281;-73
2024/02/08 10:58:27;;;;;;;11.77;8.57;;;4.20;99.90;;;;;;4967490;28;20316;-73
2024/02/08 11:01:13;;;;;;;13.43;8.70;;;4.40;99.90;;;;;;4967417;28;20199;-74
2024/02/08 11:03:52;;;;;;;9.77;8.13;;;4.50;99.90;;;;;;4967923;28;20218;-73
2024/02/08 11:06:29;;;;;;;10.53;8.47;;;4.50;99.90;;;;;;4967378;28;20657;-73
2024/02/08 11:09:09;;;;;;;8.97;8.07;;;4.60;99.90;;;;;;4967690;28;20655;-74
2024/02/08 11:11:39;;;;;;;12.80;8.10;;;4.50;99.90;;;;;;4967610;28;20203;-74
2024/02/08 11:14:09;;;;;;;9.07;8.17;;;4.60;99.90;;;;;;4967801;28;20211;-73
2024/02/08 11:16:41;;;;;;;8.57;7.67;;;4.70;99.90;;;;;;4967913;28;20323;-74
2024/02/08 11:19:16;;;;;;;8.40;7.50;;;4.80;99.90;;;;;;4967735;28;20229;-74
2024/02/08 11:21:44;;;;;;;12.80;9.13;;;4.80;99.90;;;;;;4967189;28;20199;-74
2024/02/08 11:24:27;;;;;;;11.87;8.27;;;4.90;99.90;;;;;;4967998;28;20211;-74
2024/02/08 11:26:57;;;;;;;11.57;8.20;;;5.00;99.90;;;;;;4966951;28;20206;-74
2024/02/08 11:29:27;;;;;;;14.13;9.23;;;4.80;99.90;;;;;;4967315;28;20199;-73
2024/02/08 11:31:56;;;;;;;12.90;9.17;;;4.90;99.90;;;;;;4967581;28;20233;-74
2024/02/08 11:34:33;;;;;;;13.50;8.70;;;5.00;99.90;;;;;;4967661;28;20207;-74
2024/02/08 11:37:15;;;;;;;10.50;8.00;;;5.00;99.90;;;;;;4967315;28;20968;-74
2024/02/08 11:39:46;;;;;;;12.73;9.00;;;5.10;99.90;;;;;;4967121;28;20322;-74
2024/02/08 11:42:16;;;;;;;11.97;9.37;;;5.10;99.90;;;;;;4967411;28;20207;-74
2024/02/08 11:44:43;;;;;;;16.07;9.50;;;5.10;99.90;;;;;;4968863;28;20649;-74
2024/02/08 11:47:20;;;;;;;10.73;8.90;;;5.10;99.90;;;;;;4970954;28;20218;-74
2024/02/08 11:50:00;;;;;;;12.73;8.57;;;5.10;99.90;;;;;;4952595;28;20682;-74
2024/02/08 11:52:28;;;;;;;10.77;8.07;;;5.10;99.90;;;;;;4951035;28;20199;-73
2024/02/08 11:55:05;;;;;;;12.43;8.37;;;5.00;99.90;;;;;;4969121;28;20310;-73
2024/02/08 11:57:37;;;;;;;13.53;8.50;;;5.00;99.90;;;;;;4971024;28;20249;-74
2024/02/08 12:00:15;;;;;;;10.93;8.27;;;4.90;99.90;;;;;;4970583;28;20632;-73
2024/02/08 12:02:47;;;;;;;12.03;8.80;;;4.90;99.90;;;;;;4970868;28;20191;-74
2024/02/08 12:05:17;;;;;;;12.70;8.80;;;4.90;99.90;;;;;;4970683;28;20597;-73
2024/02/08 12:07:45;;;;;;;13.20;8.70;;;4.90;99.90;;;;;;4970606;28;20741;-74
2024/02/08 12:10:15;;;;;;;10.63;7.97;;;4.90;99.90;;;;;;4970898;28;20242;-74
2024/02/08 12:12:44;;;;;;;14.63;8.43;;;4.90;99.90;;;;;;4970446;28;20257;-74
2024/02/08 12:15:12;;;;;;;10.77;8.40;;;4.90;99.90;;;;;;4970313;28;20708;-74
2024/02/08 12:17:41;;;;;;;11.07;8.30;;;4.90;99.90;;;;;;4970334;28;20603;-73
2024/02/08 12:20:10;;;;;;;14.07;7.70;;;4.90;99.90;;;;;;4970142;28;20230;-73
2024/02/08 12:22:41;;;;;;;12.60;8.27;;;4.90;99.90;;;;;;4970244;28;20234;-74
2024/02/08 12:25:15;;;;;;;11.60;8.20;;;4.90;99.90;;;;;;4970506;28;20608;-73
2024/02/08 12:27:48;;;;;;;13.27;7.73;;;4.90;99.90;;;;;;4970225;28;20195;-74
2024/02/08 12:30:21;;;;;;;11.93;8.17;;;5.00;99.90;;;;;;4970185;28;20199;-74
2024/02/08 12:32:51;;;;;;;10.97;7.53;;;5.00;99.90;;;;;;4970163;28;20383;-73
2024/02/08 12:35:25;;;;;;;13.30;8.47;;;5.00;99.90;;;;;;4970248;28;20199;-74
2024/02/08 12:37:58;;;;;;;11.73;7.20;;;5.00;99.90;;;;;;4969978;28;20201;-74
2024/02/08 12:40:29;;;;;;;13.63;8.17;;;5.00;99.90;;;;;;4969522;28;20323;-74
2024/02/08 12:42:57;;;;;;;14.70;7.53;;;5.10;99.90;;;;;;4969698;28;20199;-73
2024/02/08 12:45:24;;;;;;;12.43;7.97;;;5.00;99.90;;;;;;4967643;28;20751;-73
2024/02/08 12:47:51;;;;;;;11.23;7.93;;;5.00;99.90;;;;;;4969786;28;20294;-73
2024/02/08 12:50:21;;;;;;;12.13;7.60;;;5.00;99.90;;;;;;4969687;28;20223;-73
2024/02/08 12:52:55;;;;;;;10.47;7.47;;;5.00;99.90;;;;;;4969478;28;20214;-74
2024/02/08 12:55:28;;;;;;;12.73;8.00;;;5.00;99.90;;;;;;4969497;28;20199;-74
2024/02/08 12:57:57;;;;;;;11.60;7.47;;;5.00;99.90;;;;;;4969131;28;20234;-73
2024/02/08 13:00:25;;;;;;;13.83;8.10;;;4.90;99.90;;;;;;4969473;28;20221;-73
2024/02/08 13:02:54;;;;;;;13.90;8.97;;;5.00;99.90;;;;;;4969562;28;20231;-73
2024/02/08 13:05:28;;;;;;;19.00;9.90;;;5.00;99.90;;;;;;4969590;28;20211;-73
2024/02/08 13:08:00;;;;;;;14.93;7.40;;;5.00;99.90;;;;;;4969280;28;20238;-73
2024/02/08 13:10:28;;;;;;;11.40;7.80;;;5.00;99.90;;;;;;4969380;28;20622;-74
2024/02/08 13:13:03;;;;;;;14.30;7.67;;;5.00;99.90;;;;;;4968864;28;20266;-73
2024/02/08 13:15:33;;;;;;;9.00;7.07;;;5.00;99.90;;;;;;4969612;28;20221;-73
2024/02/08 13:18:02;;;;;;;12.17;7.17;;;5.00;99.90;;;;;;4969233;28;20713;-73
2024/02/08 13:20:29;;;;;;;12.17;7.30;;;5.00;99.90;;;;;;4969029;28;20659;-74
2024/02/08 13:22:56;;;;;;;11.33;7.03;;;5.00;99.90;;;;;;4966070;28;20725;-73
2024/02/08 13:25:28;;;;;;;10.90;7.30;;;5.00;99.90;;;;;;4949523;29;20857;-73
2024/02/08 13:27:58;;;;;;;12.27;7.23;;;5.10;99.90;;;;;;4949751;28;20319;-73
2024/02/08 13:30:25;;;;;;;11.27;7.33;;;5.10;99.90;;;;;;4949638;29;20211;-73
2024/02/08 13:32:53;;;;;;;9.07;6.57;;;5.10;99.90;;;;;;4949273;29;20663;-74
2024/02/08 13:35:20;;;;;;;12.57;7.17;;;5.10;99.90;;;;;;4949256;29;20263;-74
2024/02/08 13:37:52;;;;;;;12.30;6.73;;;5.10;99.90;;;;;;4949176;29;20330;-74
2024/02/08 13:40:20;;;;;;;13.47;7.13;;;5.10;99.90;;;;;;4955577;28;20322;-74
2024/02/08 13:42:49;;;;;;;10.20;7.40;;;5.10;99.90;;;;;;4968520;28;20269;-74
2024/02/08 13:45:16;;;;;;;9.57;6.93;;;5.10;99.90;;;;;;4968330;28;20250;-74
2024/02/08 13:47:49;;;;;;;10.87;6.50;;;5.10;99.90;;;;;;4968422;28;20299;-74
2024/02/08 13:50:17;;;;;;;11.03;7.60;;;5.10;99.90;;;;;;4968692;28;20222;-74
2024/02/08 13:52:44;;;;;;;13.10;7.67;;;5.10;99.90;;;;;;4967845;28;20242;-74
2024/02/08 13:55:17;;;;;;;11.60;7.47;;;5.10;99.90;;;;;;4949051;28;20215;-74
2024/02/08 13:57:49;;;;;;;10.00;7.17;;;5.10;99.90;;;;;;4949172;28;20206;-74
2024/02/08 14:00:21;;;;;;;12.73;7.40;;;5.10;99.90;;;;;;4949190;28;20725;-74
2024/02/08 14:02:51;;;;;;;13.47;7.63;;;5.10;99.90;;;;;;4949201;28;20283;-74
2024/02/08 14:05:20;;;;;;;10.73;7.07;;;5.10;99.90;;;;;;4957953;28;20557;-74
2024/02/08 14:07:48;;;;;;;12.30;7.73;;;5.10;99.90;;;;;;4967510;28;20297;-74
2024/02/08 14:10:18;;;;;;;12.57;7.70;;;5.10;99.90;;;;;;4968256;28;20701;-74
2024/02/08 14:12:49;;;;;;;11.23;7.37;;;5.10;99.90;;;;;;4968184;28;20230;-74
2024/02/08 14:15:21;;;;;;;11.97;7.30;;;5.10;99.90;;;;;;4968219;28;21011;-74
2024/02/08 14:17:54;;;;;;;13.77;6.87;;;5.10;99.90;;;;;;4963547;28;20199;-74
2024/02/08 14:20:39;;;;;;;12.07;6.70;;;5.10;99.90;;;;;;4948664;28;20226;-73
2024/02/08 14:23:09;;;;;;;13.53;8.10;;;5.20;99.90;;;;;;4956481;28;20238;-74
2024/02/08 14:26:01;;;;;;;15.10;8.00;;;5.10;99.90;;;;;;4964528;28;20654;-73
2024/02/08 14:28:29;;;;;;;13.27;7.03;;;5.20;99.90;;;;;;4965262;28;20195;-74
2024/02/08 14:31:00;;;;;;;12.80;7.63;;;5.20;99.90;;;;;;4965918;28;20624;-74
2024/02/08 14:33:28;;;;;;;11.70;7.10;;;5.10;99.90;;;;;;4954519;28;20869;-74
2024/02/08 14:35:55;;;;;;;12.40;6.77;;;5.10;99.90;;;;;;4947874;28;20207;-74
2024/02/08 14:38:22;;;;;;;10.47;7.30;;;5.20;99.90;;;;;;4966640;28;20210;-74
2024/02/08 14:40:51;;;;;;;12.90;7.23;;;5.20;99.90;;;;;;4966412;28;20333;-73
2024/02/08 14:43:25;;;;;;;14.37;8.17;;;5.10;99.90;;;;;;4966409;28;20214;-73
2024/02/08 14:45:53;;;;;;;17.03;8.50;;;5.10;99.90;;;;;;4948316;28;20348;-73
2024/02/08 14:48:26;;;;;;;11.03;6.90;;;5.10;99.90;;;;;;4947131;28;20251;-73
2024/02/08 14:50:58;;;;;;;11.43;7.33;;;5.10;99.90;;;;;;4946568;28;20239;-74
2024/02/08 14:53:25;;;;;;;10.93;6.77;;;5.00;99.90;;;;;;4953344;28;20240;-74
2024/02/08 14:55:54;;;;;;;12.07;7.00;;;5.00;99.90;;;;;;4965838;28;20306;-73
2024/02/08 14:58:32;;;;;;;10.83;7.37;;;5.00;99.90;;;;;;4966255;28;20211;-74